sensor_id;sensor_type;location;lat;lon;timestamp;temperature;humidity
4107;DHT22;21906;50.812;7.132;2022-11-23T00:00:25;10.90;69.40
4107;DHT22;21906;50.812;7.132;2022-11-23T00:02:57;10.90;69.00
4107;DHT22;21906;50.812;7.132;2022-11-23T00:05:23;10.90;68.90
4107;DHT22;21906;50.812;7.132;2022-11-23T00:07:49;10.90;69.00
4107;DHT22;21906;50.812;7.132;2022-11-23T00:10:15;10.90;69.00
4107;DHT22;21906;50.812;7.132;2022-11-23T00:12:41;11.00;68.70
4107;DHT22;21906;50.812;7.132;2022-11-23T00:15:07;11.00;68.70
4107;DHT22;21906;50.812;7.132;2022-11-23T00:17:33;11.10;68.60
4107;DHT22;21906;50.812;7.132;2022-11-23T00:19:58;11.20;68.70
4107;DHT22;21906;50.812;7.132;2022-11-23T00:22:24;11.10;68.70
4107;DHT22;21906;50.812;7.132;2022-11-23T00:24:49;11.10;68.70
4107;DHT22;21906;50.812;7.132;2022-11-23T00:27:15;11.10;68.60
4107;DHT22;21906;50.812;7.132;2022-11-23T00:29:41;11.10;68.70
4107;DHT22;21906;50.812;7.132;2022-11-23T00:32:06;11.20;68.30
4107;DHT22;21906;50.812;7.132;2022-11-23T00:34:32;11.20;68.40
4107;DHT22;21906;50.812;7.132;2022-11-23T00:36:58;11.10;68.70
4107;DHT22;21906;50.812;7.132;2022-11-23T00:39:24;11.10;68.90
4107;DHT22;21906;50.812;7.132;2022-11-23T00:41:50;11.10;68.60
4107;DHT22;21906;50.812;7.132;2022-11-23T00:44:15;11.10;68.70
4107;DHT22;21906;50.812;7.132;2022-11-23T00:46:41;11.10;68.70
4107;DHT22;21906;50.812;7.132;2022-11-23T00:49:07;11.20;68.70
4107;DHT22;21906;50.812;7.132;2022-11-23T00:51:34;11.10;68.80
4107;DHT22;21906;50.812;7.132;2022-11-23T00:54:04;11.20;68.60
4107;DHT22;21906;50.812;7.132;2022-11-23T00:56:31;11.20;68.40
4107;DHT22;21906;50.812;7.132;2022-11-23T00:58:58;11.20;68.40
4107;DHT22;21906;50.812;7.132;2022-11-23T01:01:27;11.20;68.50
4107;DHT22;21906;50.812;7.132;2022-11-23T01:03:55;11.20;68.40
4107;DHT22;21906;50.812;7.132;2022-11-23T01:06:24;11.20;68.40
4107;DHT22;21906;50.812;7.132;2022-11-23T01:08:52;11.10;68.70
4107;DHT22;21906;50.812;7.132;2022-11-23T01:11:19;11.10;68.50
4107;DHT22;21906;50.812;7.132;2022-11-23T01:13:46;11.20;68.30
4107;DHT22;21906;50.812;7.132;2022-11-23T01:16:20;11.30;68.30
4107;DHT22;21906;50.812;7.132;2022-11-23T01:18:46;11.20;68.50
4107;DHT22;21906;50.812;7.132;2022-11-23T01:21:13;11.20;68.50
4107;DHT22;21906;50.812;7.132;2022-11-23T01:23:39;11.20;68.30
4107;DHT22;21906;50.812;7.132;2022-11-23T01:26:08;11.30;68.40
4107;DHT22;21906;50.812;7.132;2022-11-23T01:28:35;11.30;68.10
4107;DHT22;21906;50.812;7.132;2022-11-23T01:31:07;11.20;68.30
4107;DHT22;21906;50.812;7.132;2022-11-23T01:33:33;11.30;68.50
4107;DHT22;21906;50.812;7.132;2022-11-23T01:35:59;11.30;68.50
4107;DHT22;21906;50.812;7.132;2022-11-23T01:38:25;11.30;68.30
4107;DHT22;21906;50.812;7.132;2022-11-23T01:40:50;11.30;68.50
4107;DHT22;21906;50.812;7.132;2022-11-23T01:43:17;11.30;68.60
4107;DHT22;21906;50.812;7.132;2022-11-23T01:46:04;11.30;68.70
4107;DHT22;21906;50.812;7.132;2022-11-23T01:48:35;11.30;68.80
4107;DHT22;21906;50.812;7.132;2022-11-23T01:51:05;11.20;68.90
4107;DHT22;21906;50.812;7.132;2022-11-23T01:53:31;11.30;69.00
4107;DHT22;21906;50.812;7.132;2022-11-23T01:56:00;11.30;69.10
4107;DHT22;21906;50.812;7.132;2022-11-23T01:58:28;11.20;69.30
4107;DHT22;21906;50.812;7.132;2022-11-23T02:00:56;11.20;69.40
4107;DHT22;21906;50.812;7.132;2022-11-23T02:03:22;11.20;69.30
4107;DHT22;21906;50.812;7.132;2022-11-23T02:05:50;11.20;69.40
4107;DHT22;21906;50.812;7.132;2022-11-23T02:08:19;11.20;69.60
4107;DHT22;21906;50.812;7.132;2022-11-23T02:10:46;11.20;69.70
4107;DHT22;21906;50.812;7.132;2022-11-23T02:13:13;11.20;69.70
4107;DHT22;21906;50.812;7.132;2022-11-23T02:15:40;11.30;69.50
4107;DHT22;21906;50.812;7.132;2022-11-23T02:18:11;11.20;69.60
4107;DHT22;21906;50.812;7.132;2022-11-23T02:20:38;11.20;69.70
4107;DHT22;21906;50.812;7.132;2022-11-23T02:26:21;11.20;69.60
4107;DHT22;21906;50.812;7.132;2022-11-23T02:29:00;11.20;69.80
4107;DHT22;21906;50.812;7.132;2022-11-23T02:31:26;11.20;69.90
4107;DHT22;21906;50.812;7.132;2022-11-23T02:33:52;11.20;69.90
4107;DHT22;21906;50.812;7.132;2022-11-23T02:39:13;11.20;69.70
4107;DHT22;21906;50.812;7.132;2022-11-23T02:41:48;11.20;69.80
4107;DHT22;21906;50.812;7.132;2022-11-23T02:47:06;11.20;70.10
4107;DHT22;21906;50.812;7.132;2022-11-23T02:49:32;11.10;70.10
4107;DHT22;21906;50.812;7.132;2022-11-23T02:51:58;11.20;70.10
4107;DHT22;21906;50.812;7.132;2022-11-23T02:54:25;11.10;70.10
4107;DHT22;21906;50.812;7.132;2022-11-23T02:56:51;11.10;70.30
4107;DHT22;21906;50.812;7.132;2022-11-23T02:59:17;11.10;70.10
4107;DHT22;21906;50.812;7.132;2022-11-23T03:01:42;11.10;70.20
4107;DHT22;21906;50.812;7.132;2022-11-23T03:04:08;11.10;70.30
4107;DHT22;21906;50.812;7.132;2022-11-23T03:06:35;11.10;70.40
4107;DHT22;21906;50.812;7.132;2022-11-23T03:09:01;11.10;70.50
4107;DHT22;21906;50.812;7.132;2022-11-23T03:11:26;11.00;70.60
4107;DHT22;21906;50.812;7.132;2022-11-23T03:13:52;11.10;70.60
4107;DHT22;21906;50.812;7.132;2022-11-23T03:16:17;11.10;70.60
4107;DHT22;21906;50.812;7.132;2022-11-23T03:18:43;11.10;70.60
4107;DHT22;21906;50.812;7.132;2022-11-23T03:21:09;11.10;70.70
4107;DHT22;21906;50.812;7.132;2022-11-23T03:23:35;11.10;70.50
4107;DHT22;21906;50.812;7.132;2022-11-23T03:26:02;11.10;70.60
4107;DHT22;21906;50.812;7.132;2022-11-23T03:28:28;11.10;70.60
4107;DHT22;21906;50.812;7.132;2022-11-23T03:30:53;11.10;70.60
4107;DHT22;21906;50.812;7.132;2022-11-23T03:33:19;11.10;70.50
4107;DHT22;21906;50.812;7.132;2022-11-23T03:35:45;11.10;70.40
4107;DHT22;21906;50.812;7.132;2022-11-23T03:38:11;11.10;70.50
4107;DHT22;21906;50.812;7.132;2022-11-23T03:40:37;11.10;70.40
4107;DHT22;21906;50.812;7.132;2022-11-23T03:43:03;11.10;70.40
4107;DHT22;21906;50.812;7.132;2022-11-23T03:45:28;11.10;70.40
4107;DHT22;21906;50.812;7.132;2022-11-23T03:47:54;11.10;70.50
4107;DHT22;21906;50.812;7.132;2022-11-23T03:50:20;11.10;70.40
4107;DHT22;21906;50.812;7.132;2022-11-23T03:52:47;11.10;70.50
4107;DHT22;21906;50.812;7.132;2022-11-23T03:55:13;11.10;70.50
4107;DHT22;21906;50.812;7.132;2022-11-23T03:57:39;11.10;70.30
4107;DHT22;21906;50.812;7.132;2022-11-23T04:00:05;11.10;70.30
4107;DHT22;21906;50.812;7.132;2022-11-23T04:02:31;11.00;70.50
4107;DHT22;21906;50.812;7.132;2022-11-23T04:04:57;11.10;70.60
4107;DHT22;21906;50.812;7.132;2022-11-23T04:07:22;11.10;70.40
4107;DHT22;21906;50.812;7.132;2022-11-23T04:09:48;11.10;70.50
4107;DHT22;21906;50.812;7.132;2022-11-23T04:12:14;11.10;70.60
4107;DHT22;21906;50.812;7.132;2022-11-23T04:14:39;11.10;70.40
4107;DHT22;21906;50.812;7.132;2022-11-23T04:17:05;11.10;70.40
4107;DHT22;21906;50.812;7.132;2022-11-23T04:19:30;11.10;70.30
4107;DHT22;21906;50.812;7.132;2022-11-23T04:21:57;11.10;70.30
4107;DHT22;21906;50.812;7.132;2022-11-23T04:24:22;11.10;70.30
4107;DHT22;21906;50.812;7.132;2022-11-23T04:26:48;11.10;70.30
4107;DHT22;21906;50.812;7.132;2022-11-23T04:29:14;11.10;70.20
4107;DHT22;21906;50.812;7.132;2022-11-23T04:31:39;11.20;69.80
4107;DHT22;21906;50.812;7.132;2022-11-23T04:34:05;11.10;69.60
4107;DHT22;21906;50.812;7.132;2022-11-23T04:36:31;11.00;69.80
4107;DHT22;21906;50.812;7.132;2022-11-23T04:38:57;11.00;69.70
4107;DHT22;21906;50.812;7.132;2022-11-23T04:41:23;11.00;69.60
4107;DHT22;21906;50.812;7.132;2022-11-23T04:43:49;11.00;69.60
4107;DHT22;21906;50.812;7.132;2022-11-23T04:46:16;11.00;69.40
4107;DHT22;21906;50.812;7.132;2022-11-23T04:48:42;11.00;69.20
4107;DHT22;21906;50.812;7.132;2022-11-23T04:51:08;11.00;69.30
4107;DHT22;21906;50.812;7.132;2022-11-23T04:53:34;11.00;69.30
4107;DHT22;21906;50.812;7.132;2022-11-23T04:56:00;11.00;69.20
4107;DHT22;21906;50.812;7.132;2022-11-23T04:58:25;11.10;69.30
4107;DHT22;21906;50.812;7.132;2022-11-23T05:00:51;11.10;69.40
4107;DHT22;21906;50.812;7.132;2022-11-23T05:03:17;11.00;69.40
4107;DHT22;21906;50.812;7.132;2022-11-23T05:05:42;11.10;69.50
4107;DHT22;21906;50.812;7.132;2022-11-23T05:08:08;11.10;69.40
4107;DHT22;21906;50.812;7.132;2022-11-23T05:10:35;11.10;69.40
4107;DHT22;21906;50.812;7.132;2022-11-23T05:13:00;11.10;69.40
4107;DHT22;21906;50.812;7.132;2022-11-23T05:15:26;11.10;69.20
4107;DHT22;21906;50.812;7.132;2022-11-23T05:17:52;11.10;69.20
4107;DHT22;21906;50.812;7.132;2022-11-23T05:20:18;11.10;69.30
4107;DHT22;21906;50.812;7.132;2022-11-23T05:22:43;11.00;69.40
4107;DHT22;21906;50.812;7.132;2022-11-23T05:25:09;11.00;69.40
4107;DHT22;21906;50.812;7.132;2022-11-23T05:27:35;11.00;69.40
4107;DHT22;21906;50.812;7.132;2022-11-23T05:30:01;11.00;69.50
4107;DHT22;21906;50.812;7.132;2022-11-23T05:32:26;11.00;69.40
4107;DHT22;21906;50.812;7.132;2022-11-23T05:34:52;11.10;69.50
4107;DHT22;21906;50.812;7.132;2022-11-23T05:37:18;11.10;69.40
4107;DHT22;21906;50.812;7.132;2022-11-23T05:39:43;11.00;69.30
4107;DHT22;21906;50.812;7.132;2022-11-23T05:42:09;11.00;69.40
4107;DHT22;21906;50.812;7.132;2022-11-23T05:44:35;11.00;69.40
4107;DHT22;21906;50.812;7.132;2022-11-23T05:47:00;11.00;69.40
4107;DHT22;21906;50.812;7.132;2022-11-23T05:49:26;11.00;69.50
4107;DHT22;21906;50.812;7.132;2022-11-23T05:51:51;11.00;69.50
4107;DHT22;21906;50.812;7.132;2022-11-23T05:54:17;11.00;69.60
4107;DHT22;21906;50.812;7.132;2022-11-23T05:56:43;11.00;69.70
4107;DHT22;21906;50.812;7.132;2022-11-23T05:59:10;11.00;69.60
4107;DHT22;21906;50.812;7.132;2022-11-23T06:01:35;11.00;69.70
4107;DHT22;21906;50.812;7.132;2022-11-23T06:04:01;10.90;69.70
4107;DHT22;21906;50.812;7.132;2022-11-23T06:06:27;11.00;69.50
4107;DHT22;21906;50.812;7.132;2022-11-23T06:08:53;10.90;69.60
4107;DHT22;21906;50.812;7.132;2022-11-23T06:11:18;10.90;69.60
4107;DHT22;21906;50.812;7.132;2022-11-23T06:13:47;10.90;69.60
4107;DHT22;21906;50.812;7.132;2022-11-23T06:16:13;10.90;69.60
4107;DHT22;21906;50.812;7.132;2022-11-23T06:18:39;10.90;69.60
4107;DHT22;21906;50.812;7.132;2022-11-23T06:21:04;10.90;69.60
4107;DHT22;21906;50.812;7.132;2022-11-23T06:23:30;10.90;69.70
4107;DHT22;21906;50.812;7.132;2022-11-23T06:26:00;11.00;69.50
4107;DHT22;21906;50.812;7.132;2022-11-23T06:28:26;11.00;69.60
4107;DHT22;21906;50.812;7.132;2022-11-23T06:30:53;10.90;69.60
4107;DHT22;21906;50.812;7.132;2022-11-23T06:33:19;10.90;69.60
4107;DHT22;21906;50.812;7.132;2022-11-23T06:35:52;10.90;69.40
4107;DHT22;21906;50.812;7.132;2022-11-23T06:38:18;10.90;69.50
4107;DHT22;21906;50.812;7.132;2022-11-23T06:40:44;10.90;69.40
4107;DHT22;21906;50.812;7.132;2022-11-23T06:43:09;10.90;69.30
4107;DHT22;21906;50.812;7.132;2022-11-23T06:45:35;10.90;69.30
4107;DHT22;21906;50.812;7.132;2022-11-23T06:48:00;10.90;69.40
4107;DHT22;21906;50.812;7.132;2022-11-23T06:50:26;10.90;69.30
4107;DHT22;21906;50.812;7.132;2022-11-23T06:52:57;10.90;69.40
4107;DHT22;21906;50.812;7.132;2022-11-23T06:55:24;10.90;69.40
4107;DHT22;21906;50.812;7.132;2022-11-23T06:57:50;10.90;69.50
4107;DHT22;21906;50.812;7.132;2022-11-23T07:00:17;10.80;70.00
4107;DHT22;21906;50.812;7.132;2022-11-23T07:02:43;10.80;70.20
4107;DHT22;21906;50.812;7.132;2022-11-23T07:05:09;10.90;70.30
4107;DHT22;21906;50.812;7.132;2022-11-23T07:07:34;10.90;70.40
4107;DHT22;21906;50.812;7.132;2022-11-23T07:10:00;10.90;70.40
4107;DHT22;21906;50.812;7.132;2022-11-23T07:12:26;10.90;70.50
4107;DHT22;21906;50.812;7.132;2022-11-23T07:14:52;10.90;70.50
4107;DHT22;21906;50.812;7.132;2022-11-23T07:17:17;10.90;70.60
4107;DHT22;21906;50.812;7.132;2022-11-23T07:19:43;10.90;70.60
4107;DHT22;21906;50.812;7.132;2022-11-23T07:22:08;10.90;70.60
4107;DHT22;21906;50.812;7.132;2022-11-23T07:24:34;10.90;70.50
4107;DHT22;21906;50.812;7.132;2022-11-23T07:27:00;11.00;70.30
4107;DHT22;21906;50.812;7.132;2022-11-23T07:29:25;11.00;70.30
4107;DHT22;21906;50.812;7.132;2022-11-23T07:31:51;11.00;70.00
4107;DHT22;21906;50.812;7.132;2022-11-23T07:34:17;10.90;69.80
4107;DHT22;21906;50.812;7.132;2022-11-23T07:36:43;11.00;69.70
4107;DHT22;21906;50.812;7.132;2022-11-23T07:39:08;11.00;69.60
4107;DHT22;21906;50.812;7.132;2022-11-23T07:41:34;10.90;69.40
4107;DHT22;21906;50.812;7.132;2022-11-23T07:43:59;11.00;69.40
4107;DHT22;21906;50.812;7.132;2022-11-23T07:46:25;10.90;69.50
4107;DHT22;21906;50.812;7.132;2022-11-23T07:48:51;11.00;69.30
4107;DHT22;21906;50.812;7.132;2022-11-23T07:51:18;11.00;69.30
4107;DHT22;21906;50.812;7.132;2022-11-23T07:53:45;11.00;69.20
4107;DHT22;21906;50.812;7.132;2022-11-23T07:56:10;10.90;69.10
4107;DHT22;21906;50.812;7.132;2022-11-23T07:58:36;10.90;69.20
4107;DHT22;21906;50.812;7.132;2022-11-23T08:01:02;11.00;69.30
4107;DHT22;21906;50.812;7.132;2022-11-23T08:03:28;10.90;69.30
4107;DHT22;21906;50.812;7.132;2022-11-23T08:05:53;11.00;69.40
4107;DHT22;21906;50.812;7.132;2022-11-23T08:08:19;10.90;69.30
4107;DHT22;21906;50.812;7.132;2022-11-23T08:10:44;11.00;69.40
4107;DHT22;21906;50.812;7.132;2022-11-23T08:13:10;11.00;69.40
4107;DHT22;21906;50.812;7.132;2022-11-23T08:15:36;11.00;69.10
4107;DHT22;21906;50.812;7.132;2022-11-23T08:18:03;11.00;68.90
4107;DHT22;21906;50.812;7.132;2022-11-23T08:20:30;10.90;68.70
4107;DHT22;21906;50.812;7.132;2022-11-23T08:22:56;11.00;68.80
4107;DHT22;21906;50.812;7.132;2022-11-23T08:25:23;11.00;69.00
4107;DHT22;21906;50.812;7.132;2022-11-23T08:27:57;10.90;68.90
4107;DHT22;21906;50.812;7.132;2022-11-23T08:30:23;10.90;68.50
4107;DHT22;21906;50.812;7.132;2022-11-23T08:32:49;11.00;68.30
4107;DHT22;21906;50.812;7.132;2022-11-23T08:35:15;11.00;68.00
4107;DHT22;21906;50.812;7.132;2022-11-23T08:37:40;11.00;67.90
4107;DHT22;21906;50.812;7.132;2022-11-23T08:40:07;10.90;67.30
4107;DHT22;21906;50.812;7.132;2022-11-23T08:42:32;11.00;67.60
4107;DHT22;21906;50.812;7.132;2022-11-23T08:44:58;11.10;67.30
4107;DHT22;21906;50.812;7.132;2022-11-23T08:47:24;11.20;67.10
4107;DHT22;21906;50.812;7.132;2022-11-23T08:49:51;11.10;67.20
4107;DHT22;21906;50.812;7.132;2022-11-23T08:52:16;11.20;67.10
4107;DHT22;21906;50.812;7.132;2022-11-23T08:54:42;11.20;66.70
4107;DHT22;21906;50.812;7.132;2022-11-23T08:57:08;11.20;67.10
4107;DHT22;21906;50.812;7.132;2022-11-23T08:59:33;11.30;67.50
4107;DHT22;21906;50.812;7.132;2022-11-23T09:01:59;11.40;67.60
4107;DHT22;21906;50.812;7.132;2022-11-23T09:04:25;11.40;68.20
4107;DHT22;21906;50.812;7.132;2022-11-23T09:06:52;11.50;67.30
4107;DHT22;21906;50.812;7.132;2022-11-23T09:09:18;11.50;66.10
4107;DHT22;21906;50.812;7.132;2022-11-23T09:11:43;11.50;65.80
4107;DHT22;21906;50.812;7.132;2022-11-23T09:14:09;11.50;66.90
4107;DHT22;21906;50.812;7.132;2022-11-23T09:16:35;11.50;65.70
4107;DHT22;21906;50.812;7.132;2022-11-23T09:19:00;11.50;65.70
4107;DHT22;21906;50.812;7.132;2022-11-23T09:21:26;11.60;66.20
4107;DHT22;21906;50.812;7.132;2022-11-23T09:23:57;11.70;65.90
4107;DHT22;21906;50.812;7.132;2022-11-23T09:26:23;11.80;65.40
4107;DHT22;21906;50.812;7.132;2022-11-23T09:28:49;11.80;65.50
4107;DHT22;21906;50.812;7.132;2022-11-23T09:31:15;11.90;64.80
4107;DHT22;21906;50.812;7.132;2022-11-23T09:33:41;11.90;63.80
4107;DHT22;21906;50.812;7.132;2022-11-23T09:36:07;12.00;63.70
4107;DHT22;21906;50.812;7.132;2022-11-23T09:38:32;12.00;63.30
4107;DHT22;21906;50.812;7.132;2022-11-23T09:49:45;12.20;63.20
4107;DHT22;21906;50.812;7.132;2022-11-23T09:52:18;12.20;63.30
4107;DHT22;21906;50.812;7.132;2022-11-23T09:54:47;12.20;63.30
4107;DHT22;21906;50.812;7.132;2022-11-23T09:57:17;12.20;62.90
4107;DHT22;21906;50.812;7.132;2022-11-23T09:59:53;12.20;63.20
4107;DHT22;21906;50.812;7.132;2022-11-23T10:02:23;12.30;63.10
4107;DHT22;21906;50.812;7.132;2022-11-23T10:04:51;12.20;63.10
4107;DHT22;21906;50.812;7.132;2022-11-23T10:07:23;12.20;63.00
4107;DHT22;21906;50.812;7.132;2022-11-23T10:15:39;12.30;61.50
4107;DHT22;21906;50.812;7.132;2022-11-23T10:26:23;12.30;61.60
4107;DHT22;21906;50.812;7.132;2022-11-23T10:28:51;12.20;61.40
4107;DHT22;21906;50.812;7.132;2022-11-23T10:31:21;12.20;61.50
4107;DHT22;21906;50.812;7.132;2022-11-23T10:34:20;12.20;61.80
4107;DHT22;21906;50.812;7.132;2022-11-23T10:36:39;12.20;61.20
4107;DHT22;21906;50.812;7.132;2022-11-23T10:39:25;12.30;61.10
4107;DHT22;21906;50.812;7.132;2022-11-23T10:41:56;12.30;61.00
4107;DHT22;21906;50.812;7.132;2022-11-23T10:44:33;12.30;60.70
4107;DHT22;21906;50.812;7.132;2022-11-23T10:47:01;12.40;60.70
4107;DHT22;21906;50.812;7.132;2022-11-23T10:49:29;12.30;60.80
4107;DHT22;21906;50.812;7.132;2022-11-23T10:52:00;12.30;60.90
4107;DHT22;21906;50.812;7.132;2022-11-23T10:57:20;12.40;60.60
4107;DHT22;21906;50.812;7.132;2022-11-23T11:02:45;12.40;59.70
4107;DHT22;21906;50.812;7.132;2022-11-23T11:07:52;12.60;59.20
4107;DHT22;21906;50.812;7.132;2022-11-23T11:10:33;12.70;59.50
4107;DHT22;21906;50.812;7.132;2022-11-23T11:12:59;12.90;59.30
4107;DHT22;21906;50.812;7.132;2022-11-23T11:15:25;12.90;58.60
4107;DHT22;21906;50.812;7.132;2022-11-23T11:17:58;13.10;58.20
4107;DHT22;21906;50.812;7.132;2022-11-23T11:22:53;13.40;58.90
4107;DHT22;21906;50.812;7.132;2022-11-23T11:25:46;13.40;58.50
4107;DHT22;21906;50.812;7.132;2022-11-23T11:28:25;13.50;57.10
4107;DHT22;21906;50.812;7.132;2022-11-23T11:31:09;13.50;57.50
4107;DHT22;21906;50.812;7.132;2022-11-23T11:34:03;13.50;58.20
4107;DHT22;21906;50.812;7.132;2022-11-23T11:36:38;13.60;57.10
4107;DHT22;21906;50.812;7.132;2022-11-23T11:39:12;13.50;56.80
4107;DHT22;21906;50.812;7.132;2022-11-23T11:41:41;13.50;56.70
4107;DHT22;21906;50.812;7.132;2022-11-23T11:44:15;13.30;57.20
4107;DHT22;21906;50.812;7.132;2022-11-23T11:46:52;13.40;57.80
4107;DHT22;21906;50.812;7.132;2022-11-23T11:49:29;13.40;57.80
4107;DHT22;21906;50.812;7.132;2022-11-23T11:51:58;13.40;57.70
4107;DHT22;21906;50.812;7.132;2022-11-23T11:55:00;13.50;57.40
4107;DHT22;21906;50.812;7.132;2022-11-23T11:57:55;13.50;56.80
4107;DHT22;21906;50.812;7.132;2022-11-23T12:00:19;13.50;56.50
4107;DHT22;21906;50.812;7.132;2022-11-23T12:03:11;13.50;55.50
4107;DHT22;21906;50.812;7.132;2022-11-23T12:05:50;13.50;55.00
4107;DHT22;21906;50.812;7.132;2022-11-23T12:11:00;13.40;55.40
4107;DHT22;21906;50.812;7.132;2022-11-23T12:13:27;13.40;55.80
4107;DHT22;21906;50.812;7.132;2022-11-23T12:19:50;13.30;56.10
4107;DHT22;21906;50.812;7.132;2022-11-23T12:30:31;13.30;56.00
4107;DHT22;21906;50.812;7.132;2022-11-23T12:39:24;13.50;56.90
4107;DHT22;21906;50.812;7.132;2022-11-23T12:46:47;13.90;55.80
4107;DHT22;21906;50.812;7.132;2022-11-23T12:49:37;13.90;55.50
4107;DHT22;21906;50.812;7.132;2022-11-23T12:52:26;13.90;55.60
4107;DHT22;21906;50.812;7.132;2022-11-23T12:54:53;13.70;55.90
4107;DHT22;21906;50.812;7.132;2022-11-23T12:57:32;13.60;55.60
4107;DHT22;21906;50.812;7.132;2022-11-23T13:00:05;13.50;55.40
4107;DHT22;21906;50.812;7.132;2022-11-23T13:19:17;13.60;54.80
4107;DHT22;21906;50.812;7.132;2022-11-23T13:21:45;13.70;54.60
4107;DHT22;21906;50.812;7.132;2022-11-23T13:24:28;13.90;52.60
4107;DHT22;21906;50.812;7.132;2022-11-23T13:42:52;13.90;54.60
4107;DHT22;21906;50.812;7.132;2022-11-23T13:50:36;13.90;54.60
4107;DHT22;21906;50.812;7.132;2022-11-23T13:53:04;13.90;54.40
4107;DHT22;21906;50.812;7.132;2022-11-23T13:55:44;13.90;54.20
4107;DHT22;21906;50.812;7.132;2022-11-23T14:00:56;13.80;54.50
4107;DHT22;21906;50.812;7.132;2022-11-23T14:08:50;13.50;54.60
4107;DHT22;21906;50.812;7.132;2022-11-23T14:11:21;13.50;55.20
4107;DHT22;21906;50.812;7.132;2022-11-23T14:14:00;13.50;54.80
4107;DHT22;21906;50.812;7.132;2022-11-23T14:16:46;13.40;55.50
4107;DHT22;21906;50.812;7.132;2022-11-23T14:22:20;13.20;56.20
4107;DHT22;21906;50.812;7.132;2022-11-23T14:30:26;13.10;56.90
4107;DHT22;21906;50.812;7.132;2022-11-23T14:33:20;13.00;57.20
4107;DHT22;21906;50.812;7.132;2022-11-23T14:35:56;12.90;57.70
4107;DHT22;21906;50.812;7.132;2022-11-23T14:41:29;12.70;57.70
4107;DHT22;21906;50.812;7.132;2022-11-23T14:43:56;12.70;57.30
4107;DHT22;21906;50.812;7.132;2022-11-23T14:46:24;12.60;57.50
4107;DHT22;21906;50.812;7.132;2022-11-23T14:48:51;12.60;57.90
4107;DHT22;21906;50.812;7.132;2022-11-23T14:51:17;12.50;58.10
4107;DHT22;21906;50.812;7.132;2022-11-23T14:53:52;12.50;58.00
4107;DHT22;21906;50.812;7.132;2022-11-23T14:58:58;12.50;58.10
4107;DHT22;21906;50.812;7.132;2022-11-23T15:01:25;12.40;57.90
4107;DHT22;21906;50.812;7.132;2022-11-23T15:04:05;12.40;58.00
4107;DHT22;21906;50.812;7.132;2022-11-23T15:06:34;12.40;58.00
4107;DHT22;21906;50.812;7.132;2022-11-23T15:09:11;12.40;58.30
4107;DHT22;21906;50.812;7.132;2022-11-23T15:11:41;12.40;58.30
4107;DHT22;21906;50.812;7.132;2022-11-23T15:14:28;12.40;58.60
4107;DHT22;21906;50.812;7.132;2022-11-23T15:16:55;12.40;58.30
4107;DHT22;21906;50.812;7.132;2022-11-23T15:19:28;12.30;58.90
4107;DHT22;21906;50.812;7.132;2022-11-23T15:21:56;12.30;59.40
4107;DHT22;21906;50.812;7.132;2022-11-23T15:24:25;12.30;59.80
4107;DHT22;21906;50.812;7.132;2022-11-23T15:26:54;12.20;59.80
4107;DHT22;21906;50.812;7.132;2022-11-23T15:29:35;12.10;60.40
4107;DHT22;21906;50.812;7.132;2022-11-23T15:32:03;12.00;60.70
4107;DHT22;21906;50.812;7.132;2022-11-23T15:34:44;12.00;61.00
4107;DHT22;21906;50.812;7.132;2022-11-23T15:37:11;11.90;61.50
4107;DHT22;21906;50.812;7.132;2022-11-23T15:39:37;11.90;61.90
4107;DHT22;21906;50.812;7.132;2022-11-23T15:42:04;11.90;62.10
4107;DHT22;21906;50.812;7.132;2022-11-23T15:44:31;11.90;62.20
4107;DHT22;21906;50.812;7.132;2022-11-23T15:47:02;11.80;62.90
4107;DHT22;21906;50.812;7.132;2022-11-23T15:49:30;11.80;63.40
4107;DHT22;21906;50.812;7.132;2022-11-23T15:51:59;11.70;64.10
4107;DHT22;21906;50.812;7.132;2022-11-23T15:54:34;11.70;64.50
4107;DHT22;21906;50.812;7.132;2022-11-23T15:57:01;11.70;64.60
4107;DHT22;21906;50.812;7.132;2022-11-23T16:01:53;11.70;65.70
4107;DHT22;21906;50.812;7.132;2022-11-23T16:07:22;11.70;66.70
4107;DHT22;21906;50.812;7.132;2022-11-23T16:09:50;11.70;66.80
4107;DHT22;21906;50.812;7.132;2022-11-23T16:12:27;11.70;67.20
4107;DHT22;21906;50.812;7.132;2022-11-23T16:15:42;11.70;67.80
4107;DHT22;21906;50.812;7.132;2022-11-23T16:17:43;11.60;68.40
4107;DHT22;21906;50.812;7.132;2022-11-23T16:20:13;11.60;69.10
4107;DHT22;21906;50.812;7.132;2022-11-23T16:22:46;11.60;69.60
4107;DHT22;21906;50.812;7.132;2022-11-23T16:25:30;11.50;70.00
4107;DHT22;21906;50.812;7.132;2022-11-23T16:30:25;11.40;70.50
4107;DHT22;21906;50.812;7.132;2022-11-23T16:32:51;11.40;70.10
4107;DHT22;21906;50.812;7.132;2022-11-23T16:35:19;11.40;70.50
4107;DHT22;21906;50.812;7.132;2022-11-23T16:37:45;11.40;70.90
4107;DHT22;21906;50.812;7.132;2022-11-23T16:40:11;11.40;70.70
4107;DHT22;21906;50.812;7.132;2022-11-23T16:42:37;11.40;71.10
4107;DHT22;21906;50.812;7.132;2022-11-23T16:45:03;11.40;71.40
4107;DHT22;21906;50.812;7.132;2022-11-23T16:47:29;11.30;71.70
4107;DHT22;21906;50.812;7.132;2022-11-23T16:49:55;11.30;71.70
4107;DHT22;21906;50.812;7.132;2022-11-23T16:52:22;11.20;72.10
4107;DHT22;21906;50.812;7.132;2022-11-23T16:54:48;11.10;72.20
4107;DHT22;21906;50.812;7.132;2022-11-23T16:57:32;11.10;72.50
4107;DHT22;21906;50.812;7.132;2022-11-23T17:00:01;11.10;73.00
4107;DHT22;21906;50.812;7.132;2022-11-23T17:02:28;11.20;73.10
4107;DHT22;21906;50.812;7.132;2022-11-23T17:04:54;11.20;73.30
4107;DHT22;21906;50.812;7.132;2022-11-23T17:07:20;11.20;73.10
4107;DHT22;21906;50.812;7.132;2022-11-23T17:09:46;11.20;73.50
4107;DHT22;21906;50.812;7.132;2022-11-23T17:12:16;11.10;73.80
4107;DHT22;21906;50.812;7.132;2022-11-23T17:14:45;11.10;74.00
4107;DHT22;21906;50.812;7.132;2022-11-23T17:17:18;11.10;74.00
4107;DHT22;21906;50.812;7.132;2022-11-23T17:19:45;11.10;74.40
4107;DHT22;21906;50.812;7.132;2022-11-23T17:22:18;11.00;74.50
4107;DHT22;21906;50.812;7.132;2022-11-23T17:24:45;11.00;74.60
4107;DHT22;21906;50.812;7.132;2022-11-23T17:27:17;10.90;75.00
4107;DHT22;21906;50.812;7.132;2022-11-23T17:29:44;10.90;75.00
4107;DHT22;21906;50.812;7.132;2022-11-23T17:32:12;10.90;74.90
4107;DHT22;21906;50.812;7.132;2022-11-23T17:34:39;10.90;75.10
4107;DHT22;21906;50.812;7.132;2022-11-23T17:37:07;10.90;75.30
4107;DHT22;21906;50.812;7.132;2022-11-23T17:39:37;10.90;75.10
4107;DHT22;21906;50.812;7.132;2022-11-23T17:42:03;10.90;75.00
4107;DHT22;21906;50.812;7.132;2022-11-23T17:44:29;10.90;75.20
4107;DHT22;21906;50.812;7.132;2022-11-23T17:46:56;10.90;75.10
4107;DHT22;21906;50.812;7.132;2022-11-23T17:49:22;10.80;75.20
4107;DHT22;21906;50.812;7.132;2022-11-23T17:51:53;10.80;75.30
4107;DHT22;21906;50.812;7.132;2022-11-23T17:54:19;10.80;75.20
4107;DHT22;21906;50.812;7.132;2022-11-23T17:56:45;10.80;75.30
4107;DHT22;21906;50.812;7.132;2022-11-23T17:59:11;10.80;75.40
4107;DHT22;21906;50.812;7.132;2022-11-23T18:01:37;10.80;75.40
4107;DHT22;21906;50.812;7.132;2022-11-23T18:04:03;10.70;75.60
4107;DHT22;21906;50.812;7.132;2022-11-23T18:06:29;10.70;75.70
4107;DHT22;21906;50.812;7.132;2022-11-23T18:08:55;10.70;75.90